KRFD/RFD METAR and TAF weather

Enter ICAO airport designator
Station Type Date Time Source
KRFD METAR 2017/11/22 06:54 UTC NOAA

KRFD 220654Z 32009KT 10SM CLR M05/M10 A3027 RMK AO2 SLP261 T10501100


Station Type Date Time Source
KRFD Decoded METAR 2017/11/22 06:54 UTC NOAA

GREATER ROCKFORD AIRPORT, IL, United States (KRFD) 42-12N 89-06W 221M
Nov 22, 2017 - 01:54 AM EST / 2017.11.22 0654 UTC
Wind: from the NW (320 degrees) at 10 MPH (9 KT):0
Visibility: 10 mile(s):0
Sky conditions: clear
Temperature: 23.0 F (-5.0 C)
Windchill: 12 F (-11 C):1
Dew Point: 14.0 F (-10.0 C)
Relative Humidity: 67%
Pressure (altimeter): 30.27 in. Hg (1025 hPa)
ob: KRFD 220654Z 32009KT 10SM CLR M05/M10 A3027 RMK AO2 SLP261 T10501100
cycle: 7

Station Type Date Time Source
KRFD TAF 2017/11/22 06:36 UTC NOAA

TAF KRFD 220530Z 2206/2306 32008KT P6SM SKC
FM221500 26005KT P6SM SKC
FM222100 22007KT P6SM OVC150
FM230300 20010KT P6SM OVC050


Example: see airport list